Time;durP1;ratioP1;P1;durP2;ratioP2;P2;SDS_P1;SDS_P2;PMS_P1;PMS_P2;Temp;Humidity;BMP_temperature;BMP_pressure;BME280_temperature;BME280_humidity;BME280_pressure;Samples;Min_cycle;Max_cycle;Signal;HPM_P1;HPM_P2
2022/10/25 00:02:18;;;;;;;;;2.75;1.25;;;;;;;;5077156;28;45344;-67
2022/10/25 00:04:44;;;;;;;;;15.67;13.00;;;;;;;;5067157;28;45464;-67
2022/10/25 00:07:09;;;;;;;;;3.00;2.00;;;;;;;;5080096;28;45483;-67
2022/10/25 00:09:34;;;;;;;;;1.50;1.50;;;;;;;;5079988;28;45150;-67
2022/10/25 00:11:59;;;;;;;;;5.75;1.00;;;;;;;;5067799;28;45392;-67
2022/10/25 00:14:25;;;;;;;;;0.00;0.00;;;;;;;;5059709;28;45368;-67
2022/10/25 00:16:50;;;;;;;;;1.50;0.75;;;;;;;;5059333;28;46283;-68
2022/10/25 00:19:15;;;;;;;;;0.00;0.00;;;;;;;;5059529;28;45276;-67
2022/10/25 00:21:40;;;;;;;;;1.50;0.25;;;;;;;;5058626;28;45443;-67
2022/10/25 00:24:06;;;;;;;;;0.50;0.50;;;;;;;;5059777;28;45368;-67
2022/10/25 00:26:31;;;;;;;;;1.00;1.00;;;;;;;;5059347;28;46648;-67
2022/10/25 00:28:57;;;;;;;;;3.75;0.25;;;;;;;;5059458;28;45289;-66
2022/10/25 00:31:22;;;;;;;;;3.25;0.50;;;;;;;;5059538;28;45225;-66
2022/10/25 00:33:48;;;;;;;;;2.00;1.50;;;;;;;;5066240;28;45320;-68
2022/10/25 00:36:13;;;;;;;;;0.25;0.25;;;;;;;;5078250;27;45650;-68
2022/10/25 00:38:38;;;;;;;;;1.50;0.50;;;;;;;;5078781;28;45418;-68
2022/10/25 00:41:04;;;;;;;;;0.50;0.50;;;;;;;;5078233;28;45415;-68
2022/10/25 00:43:33;;;;;;;;;1.00;1.00;;;;;;;;5079793;28;45408;-67
2022/10/25 00:45:59;;;;;;;;;3.25;1.00;;;;;;;;5078511;28;46623;-67
2022/10/25 00:48:24;;;;;;;;;1.00;1.00;;;;;;;;5079192;28;45296;-67
2022/10/25 00:50:51;;;;;;;;;6.75;1.00;;;;;;;;5079586;27;45342;-66
2022/10/25 00:53:22;;;;;;;;;0.50;0.50;;;;;;;;5077795;27;45570;-66
2022/10/25 00:56:10;;;;;;;;;3.00;1.75;;;;;;;;5079335;28;45287;-66
2022/10/25 00:58:37;;;;;;;;;1.75;1.75;;;;;;;;5072309;28;45477;-66
2022/10/25 01:01:05;;;;;;;;;1.25;1.00;;;;;;;;5079529;28;45339;-68
2022/10/25 01:03:30;;;;;;;;;1.50;0.25;;;;;;;;5079192;28;45375;-68
2022/10/25 01:05:57;;;;;;;;;1.75;0.50;;;;;;;;5079215;28;46638;-67
2022/10/25 01:08:23;;;;;;;;;0.60;0.60;;;;;;;;5079046;28;45329;-70
2022/10/25 01:10:48;;;;;;;;;0.00;0.00;;;;;;;;5077594;28;45615;-66
2022/10/25 01:13:14;;;;;;;;;2.00;1.00;;;;;;;;5078363;27;45324;-72
2022/10/25 01:16:08;;;;;;;;;0.50;0.50;;;;;;;;5074305;28;45377;-68
2022/10/25 01:18:42;;;;;;;;;3.25;1.25;;;;;;;;5016074;28;45596;-68
2022/10/25 01:21:13;;;;;;;;;3.00;0.75;;;;;;;;5016525;28;45506;-68
2022/10/25 01:23:44;;;;;;;;;2.00;0.75;;;;;;;;5016746;28;45830;-67
2022/10/25 01:26:09;;;;;;;;;2.75;0.25;;;;;;;;5015517;28;46559;-68
2022/10/25 01:28:53;;;;;;;;;0.00;0.00;;;;;;;;5016071;28;45307;-67
2022/10/25 01:31:36;;;;;;;;;1.00;1.00;;;;;;;;5015739;28;45569;-67
2022/10/25 01:34:28;;;;;;;;;0.50;0.50;;;;;;;;5016549;28;45629;-69
2022/10/25 01:37:10;;;;;;;;;1.25;1.00;;;;;;;;5014068;28;45401;-68
2022/10/25 01:39:42;;;;;;;;;0.00;0.00;;;;;;;;5017133;28;45431;-68
2022/10/25 01:42:27;;;;;;;;;0.00;0.00;;;;;;;;5015596;28;45209;-69
2022/10/25 01:45:08;;;;;;;;;3.00;2.50;;;;;;;;5016075;28;45369;-69
2022/10/25 01:47:42;;;;;;;;;2.00;1.00;;;;;;;;5015644;28;45336;-69
2022/10/25 01:50:10;;;;;;;;;2.50;1.00;;;;;;;;5023441;28;45404;-69
2022/10/25 01:52:35;;;;;;;;;2.00;1.00;;;;;;;;5022472;28;45851;-69
2022/10/25 01:55:01;;;;;;;;;1.50;1.00;;;;;;;;5037663;28;45434;-67
2022/10/25 01:57:45;;;;;;;;;1.75;0.00;;;;;;;;5058133;28;45328;-69
2022/10/25 02:00:13;;;;;;;;;1.00;1.00;;;;;;;;5057413;28;45325;-70
2022/10/25 02:02:38;;;;;;;;;5.75;1.25;;;;;;;;5068899;28;45404;-68
2022/10/25 02:05:15;;;;;;;;;2.00;0.00;;;;;;;;5078618;28;45384;-70
2022/10/25 02:07:50;;;;;;;;;0.00;0.00;;;;;;;;5078307;28;45498;-69
2022/10/25 02:10:18;;;;;;;;;1.00;1.00;;;;;;;;5076996;28;45348;-73
2022/10/25 02:12:52;;;;;;;;;1.00;1.00;;;;;;;;5078323;28;45257;-72
2022/10/25 02:15:23;;;;;;;;;0.25;0.25;;;;;;;;5071947;28;45510;-73
2022/10/25 02:18:02;;;;;;;;;3.50;1.00;;;;;;;;5037357;28;46331;-69
2022/10/25 02:20:30;;;;;;;;;0.00;0.00;;;;;;;;5037759;28;45288;-69
2022/10/25 02:22:56;;;;;;;;;2.00;1.00;;;;;;;;5037839;28;45541;-69
2022/10/25 02:25:22;;;;;;;;;4.00;2.00;;;;;;;;5037651;28;45303;-69
2022/10/25 02:27:49;;;;;;;;;0.25;0.25;;;;;;;;5041102;28;45489;-70
2022/10/25 02:30:15;;;;;;;;;1.00;0.75;;;;;;;;5037275;28;45300;-69
2022/10/25 02:32:40;;;;;;;;;2.50;2.00;;;;;;;;5057605;28;45478;-69
2022/10/25 02:35:10;;;;;;;;;1.25;1.00;;;;;;;;5056907;28;45374;-71
2022/10/25 02:37:35;;;;;;;;;4.00;1.00;;;;;;;;5057302;28;46293;-70
2022/10/25 02:40:00;;;;;;;;;2.50;1.75;;;;;;;;5057281;28;45267;-70
2022/10/25 02:42:25;;;;;;;;;1.50;1.50;;;;;;;;5057645;28;45257;-69
2022/10/25 02:44:51;;;;;;;;;3.00;1.00;;;;;;;;5057884;28;45440;-70
2022/10/25 02:47:16;;;;;;;;;3.00;1.00;;;;;;;;5056133;28;46469;-70
2022/10/25 02:49:41;;;;;;;;;3.00;1.75;;;;;;;;5042163;28;45459;-70
2022/10/25 02:52:06;;;;;;;;;4.00;2.00;;;;;;;;5036935;28;45252;-70
2022/10/25 02:54:31;;;;;;;;;1.00;1.00;;;;;;;;5037465;28;45459;-70
2022/10/25 02:56:57;;;;;;;;;3.75;2.00;;;;;;;;5037249;28;46359;-70
2022/10/25 02:59:22;;;;;;;;;3.00;1.50;;;;;;;;5037076;28;45228;-66
2022/10/25 03:01:47;;;;;;;;;2.00;1.75;;;;;;;;5039723;28;45243;-65
2022/10/25 03:04:13;;;;;;;;;1.75;1.75;;;;;;;;5046663;28;45480;-65
2022/10/25 03:06:38;;;;;;;;;2.25;1.00;;;;;;;;5050824;28;46512;-64
2022/10/25 03:09:03;;;;;;;;;1.75;1.00;;;;;;;;5040708;28;45287;-64
2022/10/25 03:11:29;;;;;;;;;1.50;1.50;;;;;;;;5058162;28;45286;-63
2022/10/25 03:13:54;;;;;;;;;1.50;1.50;;;;;;;;5060833;28;45304;-63
2022/10/25 03:16:19;;;;;;;;;3.00;1.00;;;;;;;;5060468;28;46442;-63
2022/10/25 03:18:44;;;;;;;;;1.25;1.25;;;;;;;;5060280;28;45303;-64
2022/10/25 03:21:10;;;;;;;;;4.00;2.00;;;;;;;;5060735;28;45360;-64
2022/10/25 03:23:35;;;;;;;;;2.25;1.00;;;;;;;;5053830;28;46887;-64
2022/10/25 03:26:00;;;;;;;;;2.00;2.00;;;;;;;;5060332;28;46496;-64
2022/10/25 03:28:26;;;;;;;;;3.00;2.00;;;;;;;;5059481;28;45407;-64
2022/10/25 03:30:52;;;;;;;;;3.25;1.50;;;;;;;;5060394;28;45378;-64
2022/10/25 03:33:17;;;;;;;;;4.00;3.00;;;;;;;;5060712;28;45484;-64
2022/10/25 03:35:42;;;;;;;;;4.50;1.00;;;;;;;;5060244;28;46378;-63
2022/10/25 03:38:07;;;;;;;;;2.00;1.00;;;;;;;;5060335;28;45285;-64
2022/10/25 03:40:33;;;;;;;;;5.50;2.50;;;;;;;;5059070;28;45260;-64
2022/10/25 03:42:58;;;;;;;;;3.00;2.00;;;;;;;;5044243;28;45295;-64
2022/10/25 03:45:23;;;;;;;;;1.25;1.25;;;;;;;;5040074;28;45312;-64
2022/10/25 03:47:48;;;;;;;;;11.67;11.67;;;;;;;;5039929;28;45543;-64
2022/10/25 03:50:14;;;;;;;;;5.50;2.75;;;;;;;;5040062;28;45411;-64
2022/10/25 03:52:39;;;;;;;;;4.00;3.00;;;;;;;;5040158;28;45447;-64
2022/10/25 03:55:05;;;;;;;;;4.00;2.00;;;;;;;;5039764;28;46724;-64
2022/10/25 03:57:30;;;;;;;;;3.00;2.00;;;;;;;;5049308;28;45381;-64
2022/10/25 03:59:56;;;;;;;;;4.00;3.00;;;;;;;;5058700;28;45279;-64
2022/10/25 04:02:22;;;;;;;;;2.75;2.50;;;;;;;;5060174;28;45426;-64
2022/10/25 04:04:47;;;;;;;;;3.75;3.00;;;;;;;;5058795;28;45322;-64
2022/10/25 04:07:12;;;;;;;;;2.00;2.00;;;;;;;;5059936;28;45466;-64
2022/10/25 04:09:37;;;;;;;;;3.00;3.00;;;;;;;;5059811;28;45320;-64
2022/10/25 04:12:02;;;;;;;;;3.00;2.50;;;;;;;;5057350;28;45484;-64
2022/10/25 04:14:28;;;;;;;;;2.25;2.25;;;;;;;;5059384;28;46155;-65
2022/10/25 04:16:53;;;;;;;;;4.50;2.75;;;;;;;;5059597;28;45227;-63
2022/10/25 04:19:18;;;;;;;;;4.50;2.75;;;;;;;;5044121;28;45291;-64
2022/10/25 04:21:43;;;;;;;;;5.50;4.00;;;;;;;;5039412;28;45212;-65
2022/10/25 04:24:09;;;;;;;;;5.00;3.00;;;;;;;;5039411;28;45672;-65
2022/10/25 04:26:35;;;;;;;;;5.75;3.00;;;;;;;;5038976;28;45398;-64
2022/10/25 04:29:00;;;;;;;;;7.00;6.25;;;;;;;;5038890;28;45477;-64
2022/10/25 04:31:25;;;;;;;;;5.00;3.00;;;;;;;;5041834;28;45439;-64
2022/10/25 04:33:52;;;;;;;;;2.00;1.50;;;;;;;;5059153;28;46231;-64
2022/10/25 04:36:17;;;;;;;;;2.75;2.75;;;;;;;;5057373;28;45716;-64
2022/10/25 04:38:43;;;;;;;;;4.00;2.25;;;;;;;;5059438;28;45396;-64
2022/10/25 04:41:08;;;;;;;;;8.00;3.00;;;;;;;;5059478;28;45358;-64
2022/10/25 04:43:34;;;;;;;;;4.50;3.00;;;;;;;;5059194;28;46224;-64
2022/10/25 04:46:00;;;;;;;;;5.25;2.00;;;;;;;;5056119;28;45285;-64
2022/10/25 04:48:26;;;;;;;;;3.00;3.00;;;;;;;;5059277;28;45521;-64
2022/10/25 04:50:51;;;;;;;;;7.00;2.75;;;;;;;;5059166;28;45326;-63
2022/10/25 04:53:16;;;;;;;;;6.00;4.25;;;;;;;;5058927;28;45354;-64
2022/10/25 04:55:42;;;;;;;;;4.50;3.00;;;;;;;;5057970;28;45338;-64
2022/10/25 04:58:07;;;;;;;;;3.00;3.00;;;;;;;;5058911;28;45326;-64
2022/10/25 05:00:32;;;;;;;;;3.75;2.50;;;;;;;;5059033;28;45286;-63
2022/10/25 05:02:57;;;;;;;;;3.50;3.50;;;;;;;;5038139;28;45506;-64
2022/10/25 05:05:23;;;;;;;;;5.00;2.00;;;;;;;;5038325;28;47835;-63
2022/10/25 05:07:49;;;;;;;;;2.75;1.25;;;;;;;;5038989;28;45261;-64
2022/10/25 05:10:14;;;;;;;;;3.00;2.00;;;;;;;;5038937;28;45368;-63
2022/10/25 05:12:39;;;;;;;;;4.00;2.00;;;;;;;;5038431;28;46198;-63
2022/10/25 05:15:05;;;;;;;;;7.50;3.00;;;;;;;;5050134;28;45496;-64
2022/10/25 05:17:30;;;;;;;;;8.50;7.25;;;;;;;;5058708;28;45197;-65
2022/10/25 05:19:55;;;;;;;;;3.25;3.00;;;;;;;;5049925;28;45412;-64
2022/10/25 05:22:20;;;;;;;;;4.00;4.00;;;;;;;;5058356;28;45407;-64
2022/10/25 05:24:46;;;;;;;;;5.00;3.25;;;;;;;;5058237;28;45439;-63
2022/10/25 05:27:11;;;;;;;;;15.33;12.33;;;;;;;;5058795;28;45321;-66
2022/10/25 05:29:36;;;;;;;;;4.00;3.25;;;;;;;;5058730;28;45476;-65
2022/10/25 05:32:01;;;;;;;;;5.25;4.00;;;;;;;;5057302;28;46525;-66
2022/10/25 05:34:27;;;;;;;;;10.33;8.33;;;;;;;;5058488;28;45476;-66
2022/10/25 05:36:52;;;;;;;;;4.00;4.00;;;;;;;;5043425;28;45491;-68
2022/10/25 05:39:17;;;;;;;;;2.25;2.25;;;;;;;;5053308;28;45459;-70
2022/10/25 05:41:42;;;;;;;;;2.00;2.00;;;;;;;;5056343;28;46547;-69
2022/10/25 05:44:08;;;;;;;;;5.50;4.00;;;;;;;;5058354;28;45334;-68
2022/10/25 05:46:33;;;;;;;;;4.50;3.00;;;;;;;;5058374;28;45372;-69
2022/10/25 05:48:59;;;;;;;;;2.00;2.00;;;;;;;;5058244;28;45311;-67
2022/10/25 05:51:25;;;;;;;;;5.00;2.25;;;;;;;;5056413;28;47065;-68
2022/10/25 05:53:52;;;;;;;;;6.25;4.00;;;;;;;;5055139;28;45340;-67
2022/10/25 05:56:18;;;;;;;;;4.50;4.50;;;;;;;;5051255;28;45442;-68
2022/10/25 05:58:44;;;;;;;;;5.75;3.00;;;;;;;;5058270;28;45478;-66
2022/10/25 06:01:10;;;;;;;;;4.50;2.75;;;;;;;;5056808;28;46448;-67
2022/10/25 06:03:36;;;;;;;;;4.50;3.00;;;;;;;;5057669;28;45395;-69
2022/10/25 06:06:02;;;;;;;;;4.50;4.50;;;;;;;;5057694;28;45369;-66
2022/10/25 06:08:28;;;;;;;;;5.75;3.75;;;;;;;;5058174;28;45303;-68
2022/10/25 06:10:54;;;;;;;;;4.00;4.00;;;;;;;;5043137;28;45379;-68
2022/10/25 06:13:19;;;;;;;;;2.50;2.50;;;;;;;;5037604;28;45426;-67
2022/10/25 06:15:45;;;;;;;;;6.00;4.50;;;;;;;;5037079;28;45268;-66
2022/10/25 06:18:10;;;;;;;;;4.00;4.00;;;;;;;;5037695;28;45450;-64
2022/10/25 06:20:35;;;;;;;;;4.50;4.00;;;;;;;;5037496;28;46467;-66
2022/10/25 06:23:01;;;;;;;;;10.00;8.00;;;;;;;;5037588;28;45441;-69
2022/10/25 06:25:26;;;;;;;;;3.50;3.00;;;;;;;;5036871;28;45343;-68
2022/10/25 06:27:51;;;;;;;;;6.00;3.00;;;;;;;;5037608;28;45367;-72
2022/10/25 06:30:16;;;;;;;;;7.75;6.25;;;;;;;;5046671;28;46610;-74
2022/10/25 06:32:41;;;;;;;;;7.25;5.00;;;;;;;;5039786;28;45214;-72
2022/10/25 06:35:07;;;;;;;;;5.00;5.00;;;;;;;;5045016;28;45298;-71
2022/10/25 06:37:32;;;;;;;;;6.00;5.00;;;;;;;;5057462;28;45502;-74
2022/10/25 06:39:57;;;;;;;;;6.00;2.75;;;;;;;;5055841;28;46376;-70
2022/10/25 06:42:22;;;;;;;;;8.75;8.75;;;;;;;;5057198;28;45460;-71
2022/10/25 06:44:48;;;;;;;;;4.75;4.25;;;;;;;;5057647;28;45397;-74
2022/10/25 06:47:13;;;;;;;;;5.75;4.00;;;;;;;;5057533;28;45280;-76
2022/10/25 06:49:38;;;;;;;;;6.00;5.00;;;;;;;;5055996;28;45346;-75
2022/10/25 06:52:03;;;;;;;;;6.00;4.00;;;;;;;;5056881;28;45207;-79
2022/10/25 06:54:28;;;;;;;;;7.50;6.00;;;;;;;;5057376;28;45433;-75
2022/10/25 06:56:54;;;;;;;;;5.25;5.25;;;;;;;;5057568;28;45476;-74
2022/10/25 06:59:19;;;;;;;;;6.25;6.00;;;;;;;;5041574;28;45622;-74
2022/10/25 07:01:44;;;;;;;;;6.25;5.00;;;;;;;;5055607;28;45381;-74
2022/10/25 07:04:10;;;;;;;;;10.00;5.75;;;;;;;;5056030;28;45509;-79
2022/10/25 07:06:36;;;;;;;;;3.75;2.00;;;;;;;;5057313;28;45400;-78
2022/10/25 07:09:02;;;;;;;;;8.50;6.75;;;;;;;;5053766;28;46601;-77
2022/10/25 07:11:29;;;;;;;;;4.25;4.25;;;;;;;;5056882;28;45219;-76
2022/10/25 07:13:55;;;;;;;;;7.75;5.50;;;;;;;;5056803;28;45398;-77
2022/10/25 07:16:20;;;;;;;;;7.50;4.50;;;;;;;;5044190;28;45344;-74
2022/10/25 07:18:46;;;;;;;;;6.00;5.50;;;;;;;;5036675;28;45508;-77
2022/10/25 07:21:13;;;;;;;;;5.75;5.75;;;;;;;;5036755;28;45430;-78
2022/10/25 07:23:41;;;;;;;;;9.50;6.50;;;;;;;;5044249;28;45497;-78
2022/10/25 07:26:10;;;;;;;;;7.00;5.75;;;;;;;;5057387;28;45266;-75
2022/10/25 07:28:36;;;;;;;;;11.33;11.33;;;;;;;;5042235;28;46039;-71
2022/10/25 07:31:01;;;;;;;;;10.00;5.75;;;;;;;;5044113;28;45463;-75
2022/10/25 07:33:29;;;;;;;;;4.00;4.00;;;;;;;;5055747;28;45224;-75
2022/10/25 07:35:54;;;;;;;;;3.50;3.50;;;;;;;;5056874;28;45425;-73
2022/10/25 07:38:19;;;;;;;;;13.67;12.33;;;;;;;;5056472;28;46464;-74
2022/10/25 07:40:44;;;;;;;;;6.00;3.75;;;;;;;;5056783;28;45513;-74
2022/10/25 07:43:09;;;;;;;;;7.00;6.25;;;;;;;;5056673;28;45301;-75
2022/10/25 07:45:35;;;;;;;;;4.25;4.25;;;;;;;;5055013;28;45533;-75
2022/10/25 07:48:01;;;;;;;;;7.00;5.00;;;;;;;;5057523;28;46460;-73
2022/10/25 07:50:26;;;;;;;;;8.25;7.25;;;;;;;;5051004;28;45426;-75
2022/10/25 07:52:51;;;;;;;;;4.50;3.25;;;;;;;;5060032;28;45287;-74
2022/10/25 07:55:16;;;;;;;;;4.00;2.00;;;;;;;;5060261;28;45368;-75
2022/10/25 07:57:42;;;;;;;;;4.00;4.00;;;;;;;;5057649;28;46438;-76
2022/10/25 08:00:08;;;;;;;;;4.00;4.00;;;;;;;;5037743;28;45178;-75
2022/10/25 08:02:33;;;;;;;;;3.00;2.25;;;;;;;;5039939;28;45490;-74
2022/10/25 08:04:59;;;;;;;;;6.00;3.00;;;;;;;;5039788;28;45454;-75
2022/10/25 08:07:24;;;;;;;;;4.00;3.25;;;;;;;;5041672;28;46365;-75
2022/10/25 08:09:49;;;;;;;;;4.75;3.00;;;;;;;;5058237;28;45386;-78
2022/10/25 08:12:15;;;;;;;;;9.00;4.00;;;;;;;;5059713;28;45522;-76
2022/10/25 08:14:40;;;;;;;;;4.50;3.50;;;;;;;;5059773;28;45286;-76
2022/10/25 08:17:05;;;;;;;;;4.75;4.00;;;;;;;;5059430;28;46396;-74
2022/10/25 08:19:30;;;;;;;;;3.00;2.00;;;;;;;;5059555;28;45303;-70
2022/10/25 08:21:56;;;;;;;;;4.50;4.50;;;;;;;;5059622;28;45346;-67
2022/10/25 08:24:21;;;;;;;;;10.75;6.25;;;;;;;;5042834;28;45525;-71
2022/10/25 08:26:46;;;;;;;;;2.75;2.25;;;;;;;;5039450;28;45334;-68
2022/10/25 08:29:11;;;;;;;;;3.75;2.75;;;;;;;;5039287;28;45314;-76
2022/10/25 08:31:37;;;;;;;;;3.50;3.50;;;;;;;;5039399;28;45442;-69
2022/10/25 08:34:02;;;;;;;;;8.00;6.25;;;;;;;;5039401;28;45237;-72
2022/10/25 08:36:27;;;;;;;;;5.50;4.00;;;;;;;;5039026;28;46452;-76
2022/10/25 08:38:52;;;;;;;;;2.00;2.00;;;;;;;;5049441;28;45338;-76
2022/10/25 08:41:20;;;;;;;;;10.75;1.50;;;;;;;;5042757;28;45457;-76
2022/10/25 08:43:54;;;;;;;;;5.25;4.75;;;;;;;;5048814;28;45566;-74
2022/10/25 08:46:22;;;;;;;;;4.00;4.00;;;;;;;;5058910;28;46261;-74
2022/10/25 08:48:52;;;;;;;;;4.25;1.50;;;;;;;;5058920;28;45326;-74
2022/10/25 08:51:24;;;;;;;;;5.00;3.00;;;;;;;;5053627;28;45522;-75
2022/10/25 08:53:51;;;;;;;;;2.25;2.25;;;;;;;;5058746;28;45382;-75
2022/10/25 08:56:17;;;;;;;;;3.75;3.75;;;;;;;;5058783;28;46589;-76
2022/10/25 08:58:45;;;;;;;;;3.50;3.50;;;;;;;;5069281;27;45716;-73
2022/10/25 09:01:13;;;;;;;;;4.25;4.25;;;;;;;;5058997;28;45610;-71
2022/10/25 09:03:39;;;;;;;;;5.25;2.25;;;;;;;;5067528;28;45480;-71
2022/10/25 09:06:23;;;;;;;;;4.75;4.00;;;;;;;;5079137;28;46195;-73
2022/10/25 09:08:54;;;;;;;;;2.75;2.75;;;;;;;;5071396;28;45334;-71
2022/10/25 09:11:37;;;;;;;;;6.00;3.75;;;;;;;;5058581;28;45321;-73
2022/10/25 09:14:08;;;;;;;;;5.50;2.75;;;;;;;;5065055;28;45353;-72
2022/10/25 09:16:41;;;;;;;;;2.25;2.00;;;;;;;;5075497;28;45925;-73
2022/10/25 09:19:20;;;;;;;;;6.50;3.50;;;;;;;;5073948;28;45728;-72
2022/10/25 09:21:48;;;;;;;;;3.00;3.00;;;;;;;;5058329;28;45323;-72
2022/10/25 09:24:17;;;;;;;;;1.75;1.75;;;;;;;;5058675;28;45341;-72
2022/10/25 09:26:48;;;;;;;;;10.25;6.75;;;;;;;;5058336;28;46169;-72
2022/10/25 09:29:13;;;;;;;;;2.75;2.25;;;;;;;;5058329;28;45318;-72
2022/10/25 09:31:42;;;;;;;;;5.67;5.67;;;;;;;;5062670;28;45609;-73
2022/10/25 09:34:09;;;;;;;;;6.00;4.00;;;;;;;;5065032;28;45392;-71
2022/10/25 09:36:41;;;;;;;;;4.00;4.00;;;;;;;;5058627;28;45532;-71
2022/10/25 09:39:14;;;;;;;;;4.25;4.25;;;;;;;;5061023;27;45481;-70
2022/10/25 09:41:42;;;;;;;;;3.25;3.25;;;;;;;;5058366;28;45252;-72
2022/10/25 09:44:14;;;;;;;;;6.00;3.00;;;;;;;;5055303;28;45432;-73
2022/10/25 09:46:50;;;;;;;;;2.00;2.00;;;;;;;;5036123;28;46573;-72
2022/10/25 09:49:23;;;;;;;;;3.00;2.25;;;;;;;;5051135;28;45307;-73
2022/10/25 09:52:05;;;;;;;;;8.75;7.50;;;;;;;;5039040;28;45516;-68
2022/10/25 09:54:35;;;;;;;;;3.50;3.50;;;;;;;;5050650;28;45985;-72
2022/10/25 09:57:01;;;;;;;;;3.50;2.00;;;;;;;;5044881;28;46854;-70
2022/10/25 09:59:27;;;;;;;;;2.00;1.00;;;;;;;;5043606;28;45768;-73
2022/10/25 10:01:52;;;;;;;;;2.00;1.25;;;;;;;;5053638;28;45444;-71
2022/10/25 10:04:26;;;;;;;;;2.50;2.50;;;;;;;;5040229;28;45612;-74
2022/10/25 10:06:56;;;;;;;;;5.25;4.25;;;;;;;;5037235;28;46333;-80
2022/10/25 10:09:23;;;;;;;;;4.50;2.75;;;;;;;;5048039;28;45523;-71
2022/10/25 10:11:51;;;;;;;;;0.00;0.00;;;;;;;;5046277;28;45592;-75
2022/10/25 10:14:28;;;;;;;;;2.00;1.50;;;;;;;;5048528;28;45481;-73
2022/10/25 10:16:55;;;;;;;;;3.50;2.00;;;;;;;;5045683;28;45677;-76
2022/10/25 10:19:22;;;;;;;;;2.25;1.75;;;;;;;;5047336;28;46697;-70
2022/10/25 10:21:49;;;;;;;;;3.00;1.25;;;;;;;;5037260;28;45364;-73
2022/10/25 10:24:28;;;;;;;;;1.50;0.25;;;;;;;;5037155;28;45450;-72
2022/10/25 10:26:56;;;;;;;;;4.50;3.75;;;;;;;;5045997;28;46323;-71
2022/10/25 10:29:21;;;;;;;;;3.50;1.00;;;;;;;;5041079;27;45562;-78
2022/10/25 10:31:48;;;;;;;;;1.50;1.00;;;;;;;;5049090;28;45461;-69
2022/10/25 10:34:30;;;;;;;;;1.50;1.00;;;;;;;;5036836;28;45442;-70
2022/10/25 10:37:04;;;;;;;;;1.00;1.00;;;;;;;;5036623;28;46790;-66
2022/10/25 10:39:30;;;;;;;;;1.75;0.75;;;;;;;;5045267;28;45541;-72
2022/10/25 10:42:13;;;;;;;;;3.25;1.00;;;;;;;;5056888;28;45532;-73
2022/10/25 10:44:38;;;;;;;;;1.50;1.50;;;;;;;;5055873;28;45409;-71
2022/10/25 10:47:11;;;;;;;;;1.00;1.00;;;;;;;;5041834;28;47176;-72
2022/10/25 10:49:39;;;;;;;;;1.00;1.00;;;;;;;;5037709;28;45549;-71
2022/10/25 10:52:04;;;;;;;;;1.00;1.00;;;;;;;;5047006;28;45491;-72
2022/10/25 10:54:32;;;;;;;;;4.75;1.00;;;;;;;;5043615;28;45363;-72
2022/10/25 10:57:02;;;;;;;;;5.25;2.50;;;;;;;;5036022;28;45640;-72
2022/10/25 10:59:27;;;;;;;;;3.50;2.00;;;;;;;;5036118;28;45444;-71
2022/10/25 11:01:53;;;;;;;;;2.50;2.00;;;;;;;;5036364;28;45296;-71
2022/10/25 11:04:18;;;;;;;;;0.25;0.00;;;;;;;;5036553;28;45370;-71
2022/10/25 11:06:43;;;;;;;;;3.00;1.25;;;;;;;;5036593;28;46572;-72
2022/10/25 11:09:08;;;;;;;;;1.00;1.00;;;;;;;;5037632;28;45423;-72
2022/10/25 11:11:33;;;;;;;;;18.67;14.00;;;;;;;;5060437;28;45503;-69
2022/10/25 11:14:00;;;;;;;;;4.75;3.50;;;;;;;;5063998;28;45530;-76
2022/10/25 11:16:38;;;;;;;;;2.25;2.00;;;;;;;;5066089;28;45457;-74
2022/10/25 11:19:13;;;;;;;;;1.50;0.00;;;;;;;;5053582;28;45492;-73
2022/10/25 11:21:47;;;;;;;;;3.75;2.00;;;;;;;;5049478;28;47037;-73
2022/10/25 11:24:24;;;;;;;;;1.00;1.00;;;;;;;;5061748;28;45496;-78
2022/10/25 11:26:55;;;;;;;;;1.50;1.50;;;;;;;;5046695;28;45568;-75
2022/10/25 11:29:29;;;;;;;;;1.00;0.00;;;;;;;;5060355;28;45367;-79
2022/10/25 11:32:00;;;;;;;;;2.00;0.00;;;;;;;;5060539;28;45406;-74
2022/10/25 11:34:28;;;;;;;;;6.75;3.50;;;;;;;;5060627;28;45278;-71
2022/10/25 11:37:04;;;;;;;;;1.00;1.00;;;;;;;;5050518;28;45596;-69
2022/10/25 11:39:44;;;;;;;;;3.50;0.75;;;;;;;;5055102;28;45499;-77
2022/10/25 11:42:27;;;;;;;;;0.00;0.00;;;;;;;;5064072;28;45379;-77
2022/10/25 11:45:04;;;;;;;;;1.00;1.00;;;;;;;;5059251;28;45394;-76
2022/10/25 11:47:29;;;;;;;;;0.00;0.00;;;;;;;;5057609;28;45763;-76
2022/10/25 11:50:10;;;;;;;;;1.00;1.00;;;;;;;;5048709;28;45359;-81
2022/10/25 11:52:35;;;;;;;;;2.25;1.00;;;;;;;;5049078;28;45495;-82
2022/10/25 11:55:03;;;;;;;;;1.00;1.00;;;;;;;;5040134;28;45480;-73
2022/10/25 11:57:47;;;;;;;;;2.50;0.00;;;;;;;;5038642;28;46804;-75
2022/10/25 12:00:22;;;;;;;;;1.25;0.50;;;;;;;;5048261;28;45353;-73
2022/10/25 12:02:47;;;;;;;;;4.00;1.00;;;;;;;;5049809;28;45413;-73
2022/10/25 12:05:31;;;;;;;;;1.00;1.00;;;;;;;;5040434;28;45570;-73
2022/10/25 12:08:05;;;;;;;;;1.50;0.75;;;;;;;;5038865;28;46131;-73
2022/10/25 12:10:38;;;;;;;;;1.00;1.00;;;;;;;;5053928;28;45299;-69
2022/10/25 12:13:39;;;;;;;;;2.50;0.00;;;;;;;;5044106;28;45411;-66
2022/10/25 12:16:08;;;;;;;;;1.25;0.00;;;;;;;;4996889;28;45429;-73
2022/10/25 12:18:36;;;;;;;;;2.00;1.00;;;;;;;;4997717;28;46590;-73
2022/10/25 12:21:02;;;;;;;;;0.25;0.25;;;;;;;;4996880;28;45481;-74
2022/10/25 12:23:30;;;;;;;;;1.25;0.00;;;;;;;;4996759;28;45472;-74
2022/10/25 12:25:57;;;;;;;;;4.50;0.00;;;;;;;;4996818;28;45546;-69
2022/10/25 12:28:26;;;;;;;;;0.00;0.00;;;;;;;;5005094;28;45554;-72
2022/10/25 12:30:56;;;;;;;;;5.00;0.25;;;;;;;;5016224;28;45524;-76
2022/10/25 12:33:39;;;;;;;;;1.00;1.00;;;;;;;;5011267;28;45509;-73
2022/10/25 12:36:09;;;;;;;;;1.25;0.25;;;;;;;;5018011;28;45449;-70
2022/10/25 12:38:35;;;;;;;;;2.00;2.00;;;;;;;;4997065;28;45507;-71
2022/10/25 12:41:14;;;;;;;;;0.00;0.00;;;;;;;;4996869;28;45460;-70
2022/10/25 12:43:48;;;;;;;;;18.67;18.67;;;;;;;;4997148;28;45539;-70
2022/10/25 12:46:30;;;;;;;;;3.75;2.75;;;;;;;;4997397;28;45461;-72
2022/10/25 12:49:04;;;;;;;;;4.25;1.00;;;;;;;;4998161;28;45431;-71
2022/10/25 12:51:48;;;;;;;;;1.00;0.00;;;;;;;;5037671;28;45502;-72
2022/10/25 12:54:32;;;;;;;;;5.50;4.00;;;;;;;;5049311;28;45461;-71
2022/10/25 12:56:57;;;;;;;;;0.50;0.50;;;;;;;;5049818;28;45465;-71
2022/10/25 12:59:31;;;;;;;;;0.00;0.00;;;;;;;;5038739;28;45372;-72
2022/10/25 13:01:57;;;;;;;;;1.00;0.00;;;;;;;;5038895;28;45453;-72
2022/10/25 13:04:37;;;;;;;;;1.50;1.50;;;;;;;;5038947;28;45293;-72
2022/10/25 13:07:03;;;;;;;;;0.00;0.00;;;;;;;;5038978;28;45413;-72
2022/10/25 13:09:33;;;;;;;;;0.00;0.00;;;;;;;;5044307;28;46630;-72
2022/10/25 13:12:03;;;;;;;;;0.75;0.75;;;;;;;;5058689;28;45322;-71
2022/10/25 13:14:30;;;;;;;;;4.00;2.00;;;;;;;;5054426;28;45500;-80
2022/10/25 13:17:13;;;;;;;;;0.25;0.25;;;;;;;;5049983;28;45370;-68
2022/10/25 13:19:39;;;;;;;;;0.75;0.75;;;;;;;;5058553;28;45506;-67
2022/10/25 13:22:05;;;;;;;;;2.00;0.00;;;;;;;;5058583;28;45264;-74
2022/10/25 13:24:41;;;;;;;;;0.25;0.25;;;;;;;;5058942;28;45271;-71
2022/10/25 13:27:12;;;;;;;;;0.00;0.00;;;;;;;;5038673;28;45213;-69
2022/10/25 13:29:56;;;;;;;;;0.00;0.00;;;;;;;;5038284;28;45456;-74
2022/10/25 13:32:21;;;;;;;;;4.00;3.25;;;;;;;;5038372;28;45336;-72
2022/10/25 13:34:46;;;;;;;;;0.25;0.25;;;;;;;;5038486;28;45338;-68
2022/10/25 13:37:30;;;;;;;;;4.00;1.00;;;;;;;;5038528;28;45554;-69
2022/10/25 13:39:57;;;;;;;;;2.00;2.00;;;;;;;;5037995;28;46649;-73
2022/10/25 13:42:25;;;;;;;;;2.00;0.75;;;;;;;;5037581;28;45375;-76
2022/10/25 13:44:54;;;;;;;;;1.00;1.00;;;;;;;;5037712;28;45513;-74
2022/10/25 13:47:29;;;;;;;;;3.00;3.00;;;;;;;;5037819;28;45644;-69
2022/10/25 13:49:54;;;;;;;;;2.00;1.00;;;;;;;;5039782;28;46168;-68
2022/10/25 13:52:22;;;;;;;;;0.00;0.00;;;;;;;;5037807;28;45332;-67
2022/10/25 13:54:50;;;;;;;;;1.00;0.00;;;;;;;;5037758;28;46761;-75
2022/10/25 13:57:34;;;;;;;;;3.00;3.00;;;;;;;;5047994;28;45857;-71
2022/10/25 14:00:01;;;;;;;;;2.00;2.00;;;;;;;;5051853;28;45399;-67
2022/10/25 14:02:26;;;;;;;;;2.00;0.50;;;;;;;;5050768;28;45338;-68
2022/10/25 14:04:51;;;;;;;;;1.00;0.00;;;;;;;;5046468;28;45312;-69
2022/10/25 14:07:35;;;;;;;;;0.00;0.00;;;;;;;;5054345;28;45244;-68
2022/10/25 14:10:01;;;;;;;;;0.00;0.00;;;;;;;;5044747;28;46662;-67
2022/10/25 14:12:28;;;;;;;;;0.00;0.00;;;;;;;;5055577;28;45299;-71
2022/10/25 14:15:03;;;;;;;;;2.00;0.50;;;;;;;;5053814;28;45366;-69
2022/10/25 14:17:33;;;;;;;;;2.00;2.00;;;;;;;;5049634;28;45483;-69
2022/10/25 14:20:14;;;;;;;;;0.00;0.00;;;;;;;;5036247;28;46376;-69
2022/10/25 14:22:45;;;;;;;;;0.25;0.25;;;;;;;;5043937;28;45491;-71
2022/10/25 14:25:16;;;;;;;;;1.00;1.00;;;;;;;;5048213;28;45526;-66
2022/10/25 14:27:41;;;;;;;;;1.00;1.00;;;;;;;;5057071;28;45355;-73
2022/10/25 14:30:12;;;;;;;;;1.25;0.50;;;;;;;;5056817;28;45439;-79
2022/10/25 14:32:38;;;;;;;;;5.00;5.00;;;;;;;;5053368;28;45448;-74
2022/10/25 14:35:03;;;;;;;;;1.25;1.00;;;;;;;;5056546;28;45365;-76
2022/10/25 14:37:29;;;;;;;;;1.00;1.00;;;;;;;;5072266;28;45377;-66
2022/10/25 14:39:54;;;;;;;;;10.00;10.00;;;;;;;;5056434;28;46319;-67
2022/10/25 14:42:19;;;;;;;;;0.00;0.00;;;;;;;;5067831;28;45636;-66
2022/10/25 14:44:45;;;;;;;;;1.00;1.00;;;;;;;;5056133;28;46913;-66
2022/10/25 14:47:30;;;;;;;;;0.00;0.00;;;;;;;;5067839;27;45453;-66
2022/10/25 14:49:56;;;;;;;;;2.00;0.25;;;;;;;;5056353;28;46522;-66
2022/10/25 14:52:22;;;;;;;;;0.00;0.00;;;;;;;;5056624;28;45360;-69